• Join FlightAware (Why Join?)
  • Login
  • US Flag 
03:21AM EDT


 

Airport Tracker/Info


-or-


 

Live Flight TrackerFlight Track Log ✈ TAM3221 ✈ 21-Jul-2014 ✈ SBCF / CNF - SBSP / CGH

Flight Track Log - Related Links

Times and Time Zones

All times are in EDT time to prevent confusion due to time zone crossing. See the TAM3221 flight status page for this flight to view local times or setup timezone preferences in your user account.

Time Position Orientation Groundspeed Altitude Reporting Facility
EDT Latitude Longitude Course Direction KTS MPH feet Rate Location/Type
07:19PM -19.6371 -43.9656 137° Southeast 199 229 2,600  Level FlightAware ADS-B (SBBH / PLU)
07:19PM -19.6460 -43.9577 142° Southeast 164 189 3,400 3,000 Climbing FlightAware ADS-B (SBBH / PLU)
07:19PM -19.6497 -43.9556 154° Southeast 171 197 3,600 1,800 Climbing FlightAware ADS-B (SBBH / PLU)
07:19PM -19.6540 -43.9539 161° South 178 205 3,700 1,980 Climbing FlightAware ADS-B (SBBH / PLU)
07:19PM -19.6485 -43.9562 165° South 186 214 3,900 2,220 Climbing FlightAware ADS-B
07:19PM -19.6668 -43.9506 169° South 190 219 4,300 2,580 Climbing FlightAware ADS-B (SBBH / PLU)
07:20PM -19.6700 -43.9503 180° South 193 222 4,600 3,000 Climbing FlightAware ADS-B
07:20PM -19.6757 -43.9509 189° South 192 221 4,800 3,000 Climbing FlightAware ADS-B (RKSM / SSN)
07:20PM -19.6798 -43.9520 197° South 192 221 5,100 4,620 Climbing FlightAware ADS-B (SBBH / PLU)
07:20PM -19.6836 -43.9538 207° Southwest 187 215 5,500 4,200 Climbing FlightAware ADS-B (SBBH / PLU)
07:20PM -19.6875 -43.9563 216° Southwest 187 215 5,800 3,000 Climbing FlightAware ADS-B (SBBH / PLU)
07:20PM -19.6907 -43.9593 227° Southwest 190 219 6,100 2,400 Climbing FlightAware ADS-B
07:20PM -19.6935 -43.9629 233° Southwest 193 222 6,200 2,220 Climbing FlightAware ADS-B (SBBH / PLU)
07:20PM -19.6958 -43.9671 244° Southwest 198 228 6,400 1,800 Climbing FlightAware ADS-B (SBBH / PLU)
07:20PM -19.6974 -43.9719 253° West 205 236 6,500 1,380 Climbing FlightAware ADS-B (SBBH / PLU)
07:20PM -19.7013 -43.9876 257° West 229 264 6,900 1,800 Climbing FlightAware ADS-B (SBBH / PLU)
07:21PM -19.7022 -43.9918 257° West 236 272 7,100 2,400 Climbing FlightAware ADS-B
07:21PM -19.7038 -43.9990 258° West 242 278 7,300 2,160 Climbing FlightAware ADS-B (SBBH / PLU)
07:21PM -19.7090 -44.0231 258° West 267 307 8,000 2,220 Climbing FlightAware ADS-B (SBBH / PLU)
07:21PM -19.7103 -44.0293 257° West 274 315 8,200 2,580 Climbing FlightAware ADS-B
07:21PM -19.7135 -44.0434 257° West 285 328 8,700 3,060 Climbing FlightAware ADS-B (RKSM / SSN)
07:22PM -19.7198 -44.0710 257° West 294 338 9,800 2,640 Climbing FlightAware ADS-B (SBBH / PLU)
07:22PM -19.7299 -44.1148 257° West 331 381 10,900 2,040 Climbing FlightAware ADS-B (SBBH / PLU)
07:22PM -19.7353 -44.1381 256° West 351 404 11,300 2,280 Climbing FlightAware ADS-B
07:23PM -19.7417 -44.1657 257° West 357 411 12,100 3,360 Climbing FlightAware ADS-B (SBBH / PLU)
07:23PM -19.7473 -44.1898 256° West 356 410 13,000 3,420 Climbing FlightAware ADS-B
07:23PM -19.7555 -44.2255 257° West 361 415 14,100 3,180 Climbing FlightAware ADS-B (RKSM / SSN)
07:23PM -19.7594 -44.2425 256° West 364 419 14,600 3,060 Climbing FlightAware ADS-B
07:24PM -19.7682 -44.2805 257° West 368 423 15,700 3,000 Climbing FlightAware ADS-B (RKSM / SSN)
07:24PM -19.7713 -44.2942 257° West 371 427 16,100 3,000 Climbing FlightAware ADS-B
07:24PM -19.7802 -44.3331 256° West 373 429 17,200 2,700 Climbing FlightAware ADS-B (RKSM / SSN)
07:24PM -19.7890 -44.3555 242° Southwest 379 436 17,700 2,340 Climbing FlightAware ADS-B (SBBH / PLU)
07:25PM -19.8000 -44.3711 229° Southwest 381 438 18,100 2,400 Climbing FlightAware ADS-B (SBBH / PLU)
07:25PM -19.8381 -44.4110 225° Southwest 390 449 19,300 2,580 Climbing FlightAware ADS-B (SBBH / PLU)
07:26PM -19.8767 -44.4520 225° Southwest 394 453 20,700 2,700 Climbing FlightAware ADS-B
07:26PM -19.8853 -44.4612 226° Southwest 393 452 21,000 2,820 Climbing FlightAware ADS-B (RKSM / SSN)
07:26PM -19.9238 -44.5026 226° Southwest 391 450 22,500 2,820 Climbing FlightAware ADS-B (RKSM / SSN)
07:26PM -19.9333 -44.5128 225° Southwest 393 452 22,800 1,800 Climbing FlightAware ADS-B
07:27PM -19.9617 -44.5431 226° Southwest 400 460 23,400 1,800 Climbing FlightAware ADS-B (RKSM / SSN)
07:27PM -19.9735 -44.5557 225° Southwest 403 464 23,700 2,220 Climbing FlightAware ADS-B
07:27PM -20.0016 -44.5860 226° Southwest 405 466 24,500 2,160 Climbing FlightAware ADS-B (RKSM / SSN)
07:27PM -20.0112 -44.5963 225° Southwest 407 468 24,800 1,980 Climbing FlightAware ADS-B
07:28PM -20.0412 -44.6284 226° Southwest 409 471 25,500 1,800 Climbing FlightAware ADS-B (RKSM / SSN)
07:28PM -20.0529 -44.6409 225° Southwest 414 476 25,700 1,560 Climbing FlightAware ADS-B
07:28PM -20.0788 -44.6687 226° Southwest 417 480 26,300 1,800 Climbing FlightAware ADS-B (RKSM / SSN)
07:28PM -20.0901 -44.6809 226° Southwest 418 481 26,600 2,280 Climbing FlightAware ADS-B
07:29PM -20.1226 -44.7158 226° Southwest 415 478 27,500 2,280 Climbing FlightAware ADS-B (RKSM / SSN)
07:29PM -20.1532 -44.7486 225° Southwest 416 479 28,300 2,160 Climbing FlightAware ADS-B
07:29PM -20.1638 -44.7600 226° Southwest 415 478 28,600 1,800 Climbing FlightAware ADS-B (RKSM / SSN)
07:29PM -20.1784 -44.7756 226° Southwest 417 480 28,900 1,260 Climbing FlightAware ADS-B (RKSM / SSN)
07:32PM -20.3758 -44.9882 226° Southwest 398 458 32,000 1,020 Climbing FlightAware ADS-B (SBBH / PLU)
07:32PM -20.4142 -45.0296 226° Southwest 398 458 32,000  Level FlightAware ADS-B (SBBH / PLU)
07:33PM -20.4546 -45.0735 226° Southwest 419 482 32,000  Level FlightAware ADS-B (SBBH / PLU)
07:33PM -20.4965 -45.1190 226° Southwest 438 504 32,000  Level FlightAware ADS-B (SBBH / PLU)
07:34PM -20.5391 -45.1652 226° Southwest 445 512 32,000  Level FlightAware ADS-B (SBBH / PLU)
07:34PM -20.5889 -45.2189 226° Southwest 444 511 32,000  Level FlightAware ADS-B (SDAM)
07:35PM -20.6590 -45.2856 218° Southwest 450 518 32,000  Level FlightAware ADS-B (SBBH / PLU)
07:36PM -20.7276 -45.3383 216° Southwest 451 519 32,000  Level FlightAware ADS-B (SBBH / PLU)
07:36PM -20.7787 -45.3776 216° Southwest 451 519 32,000  Level FlightAware ADS-B (SBBH / PLU)
07:37PM -20.8514 -45.4337 216° Southwest 449 517 32,000  Level FlightAware ADS-B (SDAM)
07:38PM -20.9002 -45.4713 216° Southwest 449 517 32,000  Level FlightAware ADS-B (SDAM)
07:38PM -20.9531 -45.5121 216° Southwest 449 517 32,000  Level FlightAware ADS-B (SDAM)
07:39PM -21.0035 -45.5511 216° Southwest 449 517 32,000  Level FlightAware ADS-B (SDAM)
07:39PM -21.0541 -45.5902 216° Southwest 449 517 32,000  Level FlightAware ADS-B (SDAM)
07:40PM -21.1045 -45.6291 216° Southwest 451 519 32,000  Level FlightAware ADS-B (SDAM)
07:40PM -21.1553 -45.6684 217° Southwest 450 518 32,000  Level FlightAware ADS-B (SDAM)
07:41PM -21.2055 -45.7073 216° Southwest 449 517 32,000  Level FlightAware ADS-B (SDAM)
07:41PM -21.2557 -45.7462 216° Southwest 449 517 32,000  Level FlightAware ADS-B (SDAM)
07:42PM -21.3070 -45.7860 217° Southwest 450 518 32,000  Level FlightAware ADS-B (SDAM)
07:42PM -21.3576 -45.8254 217° Southwest 449 517 32,000  Level FlightAware ADS-B (SDAM)
07:43PM -21.4085 -45.8650 217° Southwest 449 517 32,000  Level FlightAware ADS-B (SDAM)
07:43PM -21.4594 -45.9046 217° Southwest 448 516 32,000  Level FlightAware ADS-B (SDAM)
07:44PM -21.5074 -45.9419 217° Southwest 449 517 32,000  Level FlightAware ADS-B (SDAM)
07:44PM -21.5582 -45.9817 217° Southwest 449 517 32,000  Level FlightAware ADS-B (SDAM)
07:45PM -21.6101 -46.0221 216° Southwest 448 516 32,000  Level FlightAware ADS-B (SDAM)
07:45PM -21.6609 -46.0613 216° Southwest 447 514 32,000  Level FlightAware ADS-B (SDAM)
07:46PM -21.7111 -46.1005 217° Southwest 446 513 32,000  Level FlightAware ADS-B (SDAM)
07:46PM -21.7614 -46.1400 217° Southwest 446 513 32,000  Level FlightAware ADS-B (SDAM)
07:47PM -21.8120 -46.1798 217° Southwest 446 513 32,000  Level FlightAware ADS-B (SDAM)
07:47PM -21.8614 -46.2188 217° Southwest 446 513 32,000  Level FlightAware ADS-B (SDAM)
07:48PM -21.9101 -46.2571 217° Southwest 446 513 32,000  Level FlightAware ADS-B (SDAM)
07:48PM -21.9615 -46.2974 217° Southwest 445 512 32,000  Level FlightAware ADS-B (SDAM)
07:49PM -22.0325 -46.3531 217° Southwest 445 512 32,000 -180 Level FlightAware ADS-B (SBBH / PLU)
07:49PM -22.0922 -46.4001 217° Southwest 440 506 31,800 -1,320 Descending FlightAware ADS-B (SBSP / CGH)
07:50PM -22.1210 -46.4227 217° Southwest 437 503 30,600 -3,060 Descending FlightAware ADS-B (SBSP / CGH)
07:50PM -22.1880 -46.4757 217° Southwest 445 512 28,700 -3,240 Descending FlightAware ADS-B (SBSP / CGH)
07:51PM -22.2321 -46.5104 217° Southwest 454 522 27,600 -2,640 Descending FlightAware ADS-B (SBSP / CGH)
07:51PM -22.2899 -46.5562 217° Southwest 475 547 26,200 -2,580 Descending FlightAware ADS-B (SBSP / CGH)
07:52PM -22.3464 -46.6009 217° Southwest 474 545 24,900 -3,300 Descending FlightAware ADS-B (SBSP / CGH)
07:52PM -22.4002 -46.6433 217° Southwest 480 552 22,900 -3,900 Descending FlightAware ADS-B (SBSP / CGH)
07:53PM -22.4515 -46.6839 217° Southwest 479 551 21,100 -2,520 Descending FlightAware ADS-B (SBSP / CGH)
07:53PM -22.5060 -46.7270 217° Southwest 470 541 20,400 -1,500 Descending FlightAware ADS-B (SBSP / CGH)
07:54PM -22.5533 -46.7645 217° Southwest 467 537 19,600 -1,620 Descending FlightAware ADS-B (SBSP / CGH)
07:54PM -22.6118 -46.8110 217° Southwest 454 522 18,800 -1,140 Descending FlightAware ADS-B (SBSP / CGH)
07:55PM -22.6566 -46.8465 217° Southwest 450 518 18,500 -720 Descending FlightAware ADS-B (SBSP / CGH)
07:55PM -22.7124 -46.8911 217° Southwest 449 517 18,100 -840 Descending FlightAware ADS-B (SBSP / CGH)
07:56PM -22.7629 -46.9313 217° Southwest 449 517 17,700 -840 Descending FlightAware ADS-B (SBSP / CGH)
07:56PM -22.8117 -46.9704 217° Southwest 415 478 17,300 -1,140 Descending FlightAware ADS-B (SBSP / CGH)
07:57PM -22.8553 -47.0053 217° Southwest 371 427 16,600 -1,320 Descending FlightAware ADS-B (SBSP / CGH)
07:57PM -22.8944 -47.0366 217° Southwest 340 391 16,000 -600 Descending FlightAware ADS-B (SBSP / CGH)
07:58PM -22.9325 -47.0669 217° Southwest 309 356 16,000  Level FlightAware ADS-B (SDAM)
07:58PM -22.9660 -47.0939 217° Southwest 301 346 16,000  Level FlightAware ADS-B (SDAM)
07:59PM -22.9946 -47.1159 209° Southwest 302 348 16,000  Level FlightAware ADS-B (SDAM)
07:59PM -23.0068 -47.1208 194° South 301 346 16,000  Level FlightAware ADS-B (SBSP / CGH)
07:59PM -23.0204 -47.1217 176° South 300 345 16,000 -360 Level FlightAware ADS-B (SBSP / CGH)
07:59PM -23.0336 -47.1184 161° South 297 342 15,900 -1,080 Descending FlightAware ADS-B (SBSP / CGH)
08:00PM -23.0708 -47.1022 157° South 294 338 15,300 -1,320 Descending FlightAware ADS-B (SBSP / CGH)
08:00PM -23.1090 -47.0854 158° South 290 334 14,600 -1,320 Descending FlightAware ADS-B (SBSP / CGH)
08:01PM -23.1465 -47.0693 158° South 285 328 14,000 -1,440 Descending FlightAware ADS-B (SBSP / CGH)
08:01PM -23.1820 -47.0542 158° South 283 326 13,200 -1,440 Descending FlightAware ADS-B (SBSP / CGH)
08:02PM -23.2191 -47.0384 158° South 280 322 12,600 -2,040 Descending FlightAware ADS-B (SBSP / CGH)
08:02PM -23.2560 -47.0225 158° South 291 335 11,200 -3,000 Descending FlightAware ADS-B (SBSP / CGH)
08:03PM -23.2881 -47.0074 148° Southeast 296 341 9,900 -3,120 Descending FlightAware ADS-B (SBSP / CGH)
08:03PM -23.2938 -47.0024 137° Southeast 295 339 9,600 -3,000 Descending FlightAware ADS-B (SBSP / CGH)
08:03PM -23.2976 -46.9977 130° Southeast 294 338 9,400 -2,700 Descending FlightAware ADS-B (SBSP / CGH)
08:03PM -23.3017 -46.9915 124° Southeast 294 338 9,200 -2,400 Descending FlightAware ADS-B (SBSP / CGH)
08:03PM -23.3128 -46.9728 121° Southeast 290 334 8,600 -2,520 Descending FlightAware ADS-B (SBSP / CGH)
08:03PM -23.3235 -46.9537 121° Southeast 288 331 7,900 -2,640 Descending FlightAware ADS-B (SBSP / CGH)
08:04PM -23.3336 -46.9357 121° Southeast 288 331 7,300 -2,520 Descending FlightAware ADS-B (SBSP / CGH)
08:04PM -23.3443 -46.9168 121° Southeast 294 338 6,700 -1,800 Descending FlightAware ADS-B (SBSP / CGH)
08:04PM -23.3548 -46.8985 121° Southeast 288 331 6,400 -1,020 Descending FlightAware ADS-B (SBSP / CGH)
08:04PM -23.3656 -46.8798 122° Southeast 279 321 6,200 -600 Descending FlightAware ADS-B (SBSP / CGH)
08:05PM -23.3757 -46.8625 122° Southeast 268 308 6,100 -600 Descending FlightAware ADS-B (SBSP / CGH)
08:05PM -23.3854 -46.8458 122° Southeast 259 298 5,900 -780 Descending FlightAware ADS-B (SBSP / CGH)
08:05PM -23.3939 -46.8313 122° Southeast 255 293 5,700 -420 Descending FlightAware ADS-B (SDAM)
08:05PM -23.4060 -46.8126 127° Southeast 248 285 5,700  Level FlightAware ADS-B (SDAM)
08:06PM -23.4090 -46.8095 135° Southeast 245 282 5,700  Level FlightAware ADS-B (SBSP / CGH)
08:06PM -23.4142 -46.8048 142° Southeast 244 281 5,700  Level FlightAware ADS-B (SDAM)
08:06PM -23.4188 -46.8011 144° Southeast 243 280 5,700  Level FlightAware ADS-B (SDAM)
08:06PM -23.4363 -46.7880 145° Southeast 234 269 5,700  Level FlightAware ADS-B (SDAM)
08:06PM -23.4456 -46.7815 147° Southeast 223 257 5,700 -300 Level FlightAware ADS-B (SDAM)
08:07PM -23.4701 -46.7645 147° Southeast 207 238 5,500 -540 Descending FlightAware ADS-B (SBSP / CGH)
08:07PM -23.4822 -46.7563 148° Southeast 203 234 5,400 -780 Descending FlightAware ADS-B (SBSP / CGH)
08:07PM -23.4942 -46.7481 147° Southeast 200 230 5,100 -1,200 Descending FlightAware ADS-B (SBSP / CGH)
08:07PM -23.5058 -46.7401 147° Southeast 191 220 4,800 -1,080 Descending FlightAware ADS-B (SBSP / CGH)
08:08PM -23.5163 -46.7327 147° Southeast 183 211 4,600 -840 Descending FlightAware ADS-B (SBSP / CGH)
08:08PM -23.5267 -46.7256 147° Southeast 159 183 4,400 -840 Descending FlightAware ADS-B (SBSP / CGH)
08:08PM -23.5356 -46.7196 147° Southeast 147 169 4,200 -840 Descending FlightAware ADS-B (SBSP / CGH)
08:08PM -23.5436 -46.7139 147° Southeast 132 152 4,000 -840 Descending FlightAware ADS-B (SBSP / CGH)
08:09PM -23.5511 -46.7087 147° Southeast 126 145 3,800 -600 Descending FlightAware ADS-B (SBSP / CGH)
08:09PM -23.5584 -46.7037 147° Southeast 123 142 3,700 -600 Descending FlightAware ADS-B (SBSP / CGH)
08:09PM -23.5656 -46.6988 147° Southeast 123 142 3,500 -600 Descending FlightAware ADS-B (SBSP / CGH)
08:09PM -23.5728 -46.6938 147° Southeast 120 138 3,400 -600 Descending FlightAware ADS-B (SBSP / CGH)
08:10PM -23.5801 -46.6888 147° Southeast 122 140 3,200 -660 Descending FlightAware ADS-B (SBSP / CGH)
08:10PM -23.5871 -46.6839 147° Southeast 121 139 3,100 -600 Descending FlightAware ADS-B (SBSP / CGH)
08:10PM -23.5940 -46.6791 147° Southeast 122 140 2,900 -600 Descending FlightAware ADS-B (SBSP / CGH)
08:10PM -23.6016 -46.6738 146° Southeast 124 143 2,800 -600 Descending FlightAware ADS-B (SBSP / CGH)
08:11PM -23.6087 -46.6690 147° Southeast 123 142 2,600 -840 Descending FlightAware ADS-B (SBSP / CGH)
08:11PM -23.6159 -46.6640 147° Southeast 122 140 2,400 -600 Descending FlightAware ADS-B (SBSP / CGH)
08:11PM -23.6230 -46.6590 147° Southeast 122 140 2,300 -420 Descending FlightAware ADS-B (SBSP / CGH)